SBOSBO CAG / LIEE
Speedbird OnlineSpeedbird Online CAG / LIEE

Cagliari Elmas Airport
23:54 6.4°C

Location Cagliari, Italy
Latitude: 39.251499
Longitude: 9.05428
Web Airport Website | Wikipedia
Altitude 4 Meter / 13 Feet
Distance 1,529 KM / 950 Miles
from London.
Time Zone UTC +1 hours (Europe/Rome)
Codes IATA: CAG
ICAO: LIEE
Currency £1 equals EUR 1.13
Runways
RunwayLength (m)Surface
142803Asphalt
322803Asphalt
Radio
TypeDescriptionFrequency
APPCAGLIARI APP118.75
GNDElmas GND125.425
MISCSAR123.1
TWRTWR120.6
Live ATC
METAR LIEE 081420Z 11017KT 9999 FEW035 11/M01 Q1025
TAF TAF LIEE 081100Z 0812/0912 12016KT 9999 SCT030 TEMPO 0812/0816 RA
Weather As Of 08 Feb 2023 23:54
Description Clear sky
Wind 13 km/h from North (340°)
Cloud Cover 0%
Precipitation Rain: none, Snow: none
Sunrise 07:24
Sunset 17:51



Support Speedbird Online

© 2017-2023 Speedbird Online